Aérodrome :
LOGIN :

S'inscrire | Disclaimer

   EN    FR    IT 

 










Légende :    VFR   VFR Marginal   IFR   IFR Intensif   IFR Très Intensif
Visi : 
Plafond : 
>= 8 km
>= 3000ft
5 à 8 km
1000 à 3000 ft
1500m à 5 km
500 à 1000 ft
800 à 1500m
200 à 500 ft
< 800m
< 200 ft
Symboles :   Orages  Brouillard  Fortes neiges  Fortes précipitations  Vent > 20 kt
SIGMETs :   Divers  Orages  Givrage  Turbulence  Onde Orograph.  Cendres Volcan.







- Altitude de l'aérodrome : 90 ft
- Code IATA : NTE
- Voir les cartes d'approche


LFRS - Nantes

DERNIER METAR :
  • 160000Z AUTO VRB03KT 5000 BR BKN007 BKN012 BKN019 13/12 Q1013 TEMPO BKN004

METARs EXPIRÉS :
  • 152330Z AUTO 18003KT 5000 1100 R03/1400D R21/P2000 BR FEW022 13/12 Q1012 TEMPO BKN004
  • 152300Z AUTO VRB01KT 7000 BKN021 14/13 Q1012 TEMPO BKN004
  • 152230Z AUTO 00000KT 9999 OVC019 14/13 Q1012 TEMPO BKN004
  • 152200Z AUTO 32002KT 9000 OVC018 14/13 Q1012 TEMPO BKN012
  • 152130Z AUTO 33003KT 9000 BKN020 BKN028 14/13 Q1012 TEMPO BKN012

TAF TAF LFRS
Valide du 16 à 00h jusqu'au 17 à 06h UTC


152300Z 1600/1706 VRB03KT 9999 BKN025
TEMPO 1600/1608 BKN012
PROB40
TEMPO 1600/1606 3000 BR BKN004
BECMG 1611/1613 27008KT
BECMG 1621/1623 VRB03KT
TEMPO 1700/1706 3000 BR
ATIS : +33 2 40 05 12 74
Pas de NOTAMs connus pour ce terrain.



MET'MAP, la Météo Aéronautique d'un coup d'oeil ! - Copyright ORBIFLY Décembre 2007 - Disclaimer

ORBIFLY MET'MAP TEAM :

Programmation & Développement : Alexandra Zaïnal
Conception & Développement : Baudouin d'Aumeries
Co-Programmation & Développement : Marc-Olivier Méhu
Soutien technique & logistique : Manuel Goepfert

Contact : metmap@orbifly.com




SOURCES & CREDITS :

   NOAA